createdAt,value
2022-11-01T00:01:45.107Z,12.20
2022-11-01T00:04:13.424Z,12.12
2022-11-01T00:06:43.024Z,12.10
2022-11-01T00:09:11.267Z,12.17
2022-11-01T00:11:39.382Z,12.36
2022-11-01T00:14:08.008Z,12.40
2022-11-01T00:16:35.978Z,12.28
2022-11-01T00:19:04.253Z,12.22
2022-11-01T00:21:32.395Z,12.21
2022-11-01T00:24:01.733Z,12.17
2022-11-01T00:26:29.948Z,12.14
2022-11-01T00:28:58.027Z,12.17
2022-11-01T00:31:27.274Z,12.24
2022-11-01T00:33:58.372Z,12.20
2022-11-01T00:36:26.665Z,12.18
2022-11-01T00:38:54.662Z,12.23
2022-11-01T00:41:24.147Z,12.33
2022-11-01T00:43:52.290Z,12.24
2022-11-01T00:46:20.471Z,12.24
2022-11-01T00:48:48.581Z,12.19
2022-11-01T00:51:16.868Z,12.22
2022-11-01T00:53:44.815Z,12.22
2022-11-01T00:56:12.926Z,12.20
2022-11-01T00:58:42.436Z,12.17
2022-11-01T01:01:10.740Z,12.09
2022-11-01T01:03:39.020Z,12.08
2022-11-01T01:06:07.684Z,12.13
2022-11-01T01:08:35.867Z,12.02
2022-11-01T01:11:04.165Z,12.10
2022-11-01T01:13:32.335Z,12.11
2022-11-01T01:16:01.709Z,11.95
2022-11-01T01:18:29.798Z,12.07
2022-11-01T01:21:02.566Z,12.04
2022-11-01T01:23:30.764Z,12.02
2022-11-01T01:25:58.886Z,12.05
2022-11-01T01:28:26.883Z,12.03
2022-11-01T01:30:55.071Z,11.99
2022-11-01T01:33:24.581Z,11.96
2022-11-01T01:35:52.585Z,11.98
2022-11-01T01:38:20.715Z,12.06
2022-11-01T01:40:48.873Z,12.08
2022-11-01T01:43:16.939Z,12.00
2022-11-01T01:45:45.368Z,11.96
2022-11-01T01:48:18.689Z,11.92
2022-11-01T01:50:57.382Z,11.85
2022-11-01T01:53:29.779Z,11.95
2022-11-01T01:56:01.425Z,11.91
2022-11-01T01:58:34.276Z,11.97
2022-11-01T02:01:02.393Z,12.17
2022-11-01T02:03:33.932Z,12.23
2022-11-01T02:06:09.543Z,12.18
2022-11-01T02:08:41.305Z,12.13
2022-11-01T02:11:11.237Z,12.20
2022-11-01T02:13:39.318Z,12.21
2022-11-01T02:16:22.738Z,12.22
2022-11-01T02:18:59.619Z,12.25
2022-11-01T02:21:53.030Z,12.26
2022-11-01T02:24:54.255Z,12.34
2022-11-01T02:27:26.698Z,12.35
2022-11-01T02:30:13.933Z,12.27
2022-11-01T02:32:56.143Z,12.25
2022-11-01T02:35:30.543Z,12.28
2022-11-01T02:38:04.703Z,12.28
2022-11-01T02:40:42.318Z,12.28
2022-11-01T02:43:17.301Z,12.38
2022-11-01T02:45:49.492Z,12.34
2022-11-01T02:48:22.415Z,12.35
2022-11-01T02:50:55.720Z,12.20
2022-11-01T02:53:24.032Z,12.31
2022-11-01T02:55:53.606Z,12.28
2022-11-01T02:58:24.766Z,12.38
2022-11-01T03:00:53.300Z,12.37
2022-11-01T03:03:26.284Z,12.34
2022-11-01T03:06:01.419Z,12.22
2022-11-01T03:08:34.529Z,12.27
2022-11-01T03:11:12.619Z,12.30
2022-11-01T03:13:54.682Z,12.31
2022-11-01T03:16:32.119Z,12.27
2022-11-01T03:19:12.268Z,12.37
2022-11-01T03:21:43.455Z,12.31
2022-11-01T03:24:21.534Z,12.38
2022-11-01T03:26:56.110Z,12.38
2022-11-01T03:29:27.183Z,12.37
2022-11-01T03:31:56.513Z,12.37
2022-11-01T03:34:26.713Z,12.42
2022-11-01T03:36:59.127Z,12.34
2022-11-01T03:39:32.898Z,12.40
2022-11-01T03:42:05.587Z,12.38
2022-11-01T03:44:37.599Z,12.43
2022-11-01T03:47:05.812Z,12.45
2022-11-01T03:49:35.457Z,12.40
2022-11-01T03:52:03.467Z,12.41
2022-11-01T03:54:31.457Z,12.45
2022-11-01T03:56:59.909Z,12.36
2022-11-01T03:59:28.005Z,12.38
2022-11-01T04:01:56.132Z,12.38
2022-11-01T04:04:24.526Z,12.33
2022-11-01T04:06:54.288Z,12.33
2022-11-01T04:09:22.205Z,12.33
2022-11-01T04:11:50.363Z,12.38
2022-11-01T04:14:36.450Z,12.32
2022-11-01T04:17:21.647Z,12.32
2022-11-01T04:20:07.400Z,12.18
2022-11-01T04:22:40.655Z,12.23
2022-11-01T04:25:09.192Z,12.32
2022-11-01T04:27:37.196Z,12.19
2022-11-01T04:30:05.722Z,12.21
2022-11-01T04:32:33.780Z,12.28
2022-11-01T04:35:01.783Z,12.28
2022-11-01T04:37:31.719Z,12.27
2022-11-01T04:40:09.286Z,12.23
2022-11-01T04:42:46.582Z,12.33
2022-11-01T04:45:32.131Z,12.19
2022-11-01T04:48:21.541Z,12.09
2022-11-01T04:51:02.806Z,12.18
2022-11-01T04:53:31.151Z,12.12
2022-11-01T04:56:00.459Z,12.12
2022-11-01T04:58:28.539Z,12.12
2022-11-01T05:00:56.793Z,12.27
2022-11-01T05:03:24.856Z,12.27
2022-11-01T05:05:52.805Z,12.32
2022-11-01T05:08:21.096Z,12.29
2022-11-01T05:10:54.809Z,12.27
2022-11-01T05:13:24.759Z,12.38
2022-11-01T05:16:17.797Z,12.33
2022-11-01T05:18:43.585Z,12.28
2022-11-01T05:21:11.578Z,12.42
2022-11-01T05:23:39.511Z,12.28
2022-11-01T05:26:07.958Z,12.43
2022-11-01T05:28:37.261Z,12.41
2022-11-01T05:31:05.332Z,12.37
2022-11-01T05:33:33.429Z,12.30
2022-11-01T05:36:02.209Z,12.31
2022-11-01T05:38:30.224Z,12.31
2022-11-01T05:40:58.513Z,12.25
2022-11-01T05:43:26.977Z,12.21
2022-11-01T05:45:57.357Z,12.29
2022-11-01T05:48:27.434Z,12.33
2022-11-01T05:50:55.671Z,12.28
2022-11-01T05:53:23.967Z,12.23
2022-11-01T05:55:54.805Z,12.30
2022-11-01T05:58:26.491Z,12.20
2022-11-01T06:01:00.754Z,12.19
2022-11-01T06:03:28.904Z,12.13
2022-11-01T06:05:57.149Z,12.21
2022-11-01T06:08:25.514Z,12.17
2022-11-01T06:10:54.206Z,12.04
2022-11-01T06:13:22.226Z,12.22
2022-11-01T06:15:50.441Z,12.20
2022-11-01T06:18:19.799Z,12.11
2022-11-01T06:20:47.796Z,12.17
2022-11-01T06:23:16.333Z,12.22
2022-11-01T06:25:44.498Z,12.11
2022-11-01T06:28:12.685Z,12.14
2022-11-01T06:30:40.832Z,12.21
2022-11-01T06:33:09.648Z,12.24
2022-11-01T06:35:39.071Z,12.20
2022-11-01T06:38:08.521Z,12.23
2022-11-01T06:40:36.918Z,12.26
2022-11-01T06:43:07.407Z,12.30
2022-11-01T06:45:35.648Z,12.33
2022-11-01T06:48:03.932Z,12.22
2022-11-01T06:50:33.028Z,12.27
2022-11-01T06:53:02.654Z,12.21
2022-11-01T06:55:31.244Z,12.34
2022-11-01T06:58:01.135Z,12.24
2022-11-01T07:00:31.405Z,12.16
2022-11-01T07:03:01.391Z,12.19
2022-11-01T07:05:32.985Z,12.18
2022-11-01T07:08:07.142Z,12.22
2022-11-01T07:10:36.976Z,12.27
2022-11-01T07:13:06.891Z,12.28
2022-11-01T07:15:35.601Z,12.28
2022-11-01T07:18:06.623Z,12.31
2022-11-01T07:20:41.369Z,12.34
2022-11-01T07:23:13.766Z,12.31
2022-11-01T07:25:42.300Z,12.37
2022-11-01T07:28:10.626Z,12.45
2022-11-01T07:30:39.393Z,12.38
2022-11-01T07:33:10.185Z,12.34
2022-11-01T07:35:38.164Z,12.37
2022-11-01T07:38:11.482Z,12.38
2022-11-01T07:40:42.725Z,12.31
2022-11-01T07:43:11.025Z,12.42
2022-11-01T07:45:39.134Z,12.29
2022-11-01T07:48:10.536Z,12.35
2022-11-01T07:50:40.295Z,12.34
2022-11-01T07:53:09.935Z,12.46
2022-11-01T07:55:38.975Z,12.45
2022-11-01T07:58:09.519Z,12.43
2022-11-01T08:00:38.856Z,12.40
2022-11-01T08:03:08.807Z,12.37
2022-11-01T08:05:37.740Z,12.49
2022-11-01T08:08:06.876Z,12.58
2022-11-01T08:10:36.584Z,12.59
2022-11-01T08:13:06.837Z,12.66
2022-11-01T08:15:36.663Z,12.47
2022-11-01T08:18:05.261Z,12.51
2022-11-01T08:20:33.712Z,12.56
2022-11-01T08:23:02.229Z,12.58
2022-11-01T08:25:30.735Z,12.64
2022-11-01T08:28:02.883Z,12.61
2022-11-01T08:30:31.579Z,12.65
2022-11-01T08:33:02.676Z,12.69
2022-11-01T08:35:32.048Z,12.79
2022-11-01T08:38:01.365Z,12.74
2022-11-01T08:40:29.515Z,12.71
2022-11-01T08:42:58.310Z,12.84
2022-11-01T08:45:27.592Z,12.88
2022-11-01T08:47:59.821Z,12.89
2022-11-01T08:50:29.622Z,12.88
2022-11-01T08:52:57.974Z,12.94
2022-11-01T08:55:26.474Z,12.93
2022-11-01T08:57:54.834Z,13.02
2022-11-01T09:00:23.024Z,13.04
2022-11-01T09:02:51.165Z,12.97
2022-11-01T09:05:19.921Z,13.07
2022-11-01T09:07:49.930Z,13.16
2022-11-01T09:10:18.298Z,13.32
2022-11-01T09:12:46.503Z,13.41
2022-11-01T09:15:14.477Z,13.47
2022-11-01T09:17:42.484Z,13.50
2022-11-01T09:20:11.184Z,13.49
2022-11-01T09:22:39.176Z,13.50
2022-11-01T09:25:09.768Z,13.53
2022-11-01T09:27:38.034Z,13.63
2022-11-01T09:30:06.966Z,13.58
2022-11-01T09:32:35.089Z,13.67
2022-11-01T09:35:04.176Z,13.64
2022-11-01T09:37:32.663Z,13.65
2022-11-01T09:40:00.693Z,13.62
2022-11-01T09:42:34.600Z,13.57
2022-11-01T09:45:08.408Z,13.56
2022-11-01T09:47:37.925Z,13.58
2022-11-01T09:50:16.613Z,13.63
2022-11-01T09:52:44.783Z,13.63
2022-11-01T09:55:16.200Z,13.67
2022-11-01T09:57:51.620Z,13.58
2022-11-01T10:00:21.621Z,13.64
2022-11-01T10:03:14.921Z,13.73
2022-11-01T10:05:50.843Z,13.70
2022-11-01T10:08:35.762Z,13.76
2022-11-01T10:11:18.418Z,13.78
2022-11-01T10:13:57.048Z,13.73
2022-11-01T10:16:36.574Z,13.87
2022-11-01T10:19:06.785Z,13.93
2022-11-01T10:21:43.012Z,13.89
2022-11-01T10:24:22.599Z,13.98
2022-11-01T10:26:56.178Z,13.57
2022-11-01T10:29:34.561Z,13.92
2022-11-01T10:32:05.724Z,13.90
2022-11-01T10:34:38.687Z,13.92
2022-11-01T10:37:24.046Z,13.93
2022-11-01T10:40:00.190Z,13.97
2022-11-01T10:42:30.995Z,14.02
2022-11-01T10:45:03.228Z,14.06
2022-11-01T10:47:31.989Z,14.08
2022-11-01T10:50:06.678Z,14.04
2022-11-01T10:52:44.654Z,14.07
2022-11-01T10:55:15.309Z,14.09
2022-11-01T10:57:49.575Z,14.05
2022-11-01T11:00:20.583Z,14.02
2022-11-01T11:02:51.907Z,14.06
2022-11-01T11:05:22.531Z,14.08
2022-11-01T11:07:50.614Z,14.12
2022-11-01T11:10:24.225Z,14.14
2022-11-01T11:12:57.419Z,14.11
2022-11-01T11:15:38.771Z,14.05
2022-11-01T11:18:15.954Z,14.04
2022-11-01T11:20:45.109Z,14.13
2022-11-01T11:23:13.969Z,14.17
2022-11-01T11:25:44.919Z,14.15
2022-11-01T11:28:25.802Z,14.14
2022-11-01T11:30:55.529Z,14.12
2022-11-01T11:33:24.085Z,13.96
2022-11-01T11:35:58.023Z,14.08
2022-11-01T11:38:43.365Z,14.07
2022-11-01T11:41:13.214Z,14.10
2022-11-01T11:43:42.654Z,14.15
2022-11-01T11:46:21.797Z,14.17
2022-11-01T11:48:52.415Z,14.19
2022-11-01T11:51:21.827Z,14.20
2022-11-01T11:54:18.056Z,14.19
2022-11-01T11:56:47.179Z,14.19
2022-11-01T11:59:26.205Z,14.13
2022-11-01T12:02:01.071Z,14.17
2022-11-01T12:04:38.672Z,14.17
2022-11-01T12:07:08.273Z,14.19
2022-11-01T12:09:46.747Z,14.14
2022-11-01T12:12:21.278Z,14.12
2022-11-01T12:14:49.850Z,14.17
2022-11-01T12:17:36.110Z,14.19
2022-11-01T12:20:13.842Z,14.15
2022-11-01T12:22:49.469Z,14.09
2022-11-01T12:25:21.982Z,14.12
2022-11-01T12:27:57.174Z,14.09
2022-11-01T12:30:27.348Z,14.06
2022-11-01T12:32:59.387Z,14.05
2022-11-01T12:35:33.840Z,14.07
2022-11-01T12:38:17.689Z,14.00
2022-11-01T12:40:50.722Z,14.00
2022-11-01T12:43:23.641Z,13.89
2022-11-01T12:45:56.533Z,13.84
2022-11-01T12:48:31.311Z,13.89
2022-11-01T12:51:05.393Z,13.88
2022-11-01T12:53:40.714Z,14.00
2022-11-01T12:56:09.005Z,13.95
2022-11-01T12:58:37.436Z,13.95
2022-11-01T13:01:20.969Z,13.90
2022-11-01T13:04:00.781Z,13.85
2022-11-01T13:06:44.874Z,13.88
2022-11-01T13:09:19.330Z,13.88
2022-11-01T13:12:00.526Z,13.87
2022-11-01T13:14:44.843Z,13.86
2022-11-01T13:17:20.622Z,13.90
2022-11-01T13:20:00.697Z,13.87
2022-11-01T13:22:37.177Z,13.87
2022-11-01T13:25:13.732Z,13.90
2022-11-01T13:27:49.961Z,13.81
2022-11-01T13:30:21.278Z,13.89
2022-11-01T13:32:59.303Z,13.88
2022-11-01T13:35:43.472Z,13.85
2022-11-01T13:38:21.846Z,13.84
2022-11-01T13:40:59.048Z,13.92
2022-11-01T13:43:35.492Z,13.89
2022-11-01T13:46:41.811Z,13.92
2022-11-01T13:49:39.181Z,13.93
2022-11-01T13:52:14.148Z,13.94
2022-11-01T13:54:49.191Z,13.87
2022-11-01T13:57:19.762Z,13.97
2022-11-01T13:59:55.723Z,13.98
2022-11-01T14:02:54.428Z,13.89
2022-11-01T14:05:23.042Z,13.91
2022-11-01T14:08:40.259Z,13.92
2022-11-01T14:11:11.957Z,14.03
2022-11-01T14:13:45.657Z,14.03
2022-11-01T14:16:22.807Z,13.95
2022-11-01T14:19:20.876Z,13.94
2022-11-01T14:21:53.247Z,13.91
2022-11-01T14:24:34.510Z,14.00
2022-11-01T14:27:23.134Z,13.96
2022-11-01T14:29:55.677Z,13.95
2022-11-01T14:32:26.148Z,13.96
2022-11-01T14:35:01.424Z,13.94
2022-11-01T14:37:35.643Z,13.90
2022-11-01T14:40:33.191Z,13.92
2022-11-01T14:43:07.264Z,13.95
2022-11-01T14:45:38.514Z,13.98
2022-11-01T14:48:24.778Z,13.90
2022-11-01T14:51:03.531Z,13.91
2022-11-01T14:53:37.806Z,13.84
2022-11-01T14:56:15.243Z,13.90
2022-11-01T14:58:44.345Z,13.94
2022-11-01T15:01:17.709Z,13.92
2022-11-01T15:03:56.783Z,13.94
2022-11-01T15:06:28.206Z,13.92
2022-11-01T15:08:58.742Z,13.96
2022-11-01T15:11:33.139Z,14.03
2022-11-01T15:14:06.411Z,14.08
2022-11-01T15:16:37.085Z,14.09
2022-11-01T15:19:10.272Z,14.11
2022-11-01T15:21:47.046Z,14.12
2022-11-01T15:24:24.806Z,14.12
2022-11-01T15:26:54.995Z,14.18
2022-11-01T15:29:25.969Z,14.20
2022-11-01T15:31:58.350Z,14.15
2022-11-01T15:34:28.693Z,14.20
2022-11-01T15:36:57.152Z,14.20
2022-11-01T15:39:29.043Z,14.24
2022-11-01T15:41:58.671Z,14.19
2022-11-01T15:44:28.939Z,14.18
2022-11-01T15:47:00.512Z,14.20
2022-11-01T15:49:31.608Z,14.20
2022-11-01T15:52:03.159Z,14.22
2022-11-01T15:54:45.386Z,14.24
2022-11-01T15:57:22.025Z,14.27
2022-11-01T15:59:57.436Z,14.33
2022-11-01T16:02:31.456Z,14.35
2022-11-01T16:05:00.439Z,14.35
2022-11-01T16:07:32.336Z,14.34
2022-11-01T16:10:03.871Z,14.29
2022-11-01T16:12:38.637Z,14.26
2022-11-01T16:15:09.910Z,14.29
2022-11-01T16:17:42.271Z,14.31
2022-11-01T16:20:30.409Z,14.25
2022-11-01T16:23:00.490Z,14.28
2022-11-01T16:25:30.444Z,14.27
2022-11-01T16:28:03.674Z,14.30
2022-11-01T16:30:46.408Z,14.28
2022-11-01T16:33:26.249Z,14.34
2022-11-01T16:35:56.295Z,14.33
2022-11-01T16:38:44.413Z,14.29
2022-11-01T16:41:20.376Z,14.27
2022-11-01T16:43:53.641Z,14.21
2022-11-01T16:46:22.797Z,14.23
2022-11-01T16:48:54.150Z,14.21
2022-11-01T16:51:27.075Z,14.26
2022-11-01T16:53:55.958Z,14.25
2022-11-01T16:56:42.273Z,14.22
2022-11-01T16:59:27.301Z,14.21
2022-11-01T17:01:58.333Z,14.18
2022-11-01T17:04:28.160Z,14.26
2022-11-01T17:06:58.985Z,14.28
2022-11-01T17:09:33.849Z,14.20
2022-11-01T17:12:01.966Z,14.28
2022-11-01T17:14:32.129Z,14.23
2022-11-01T17:17:07.188Z,14.27
2022-11-01T17:19:37.935Z,14.27
2022-11-01T17:22:13.255Z,14.28
2022-11-01T17:24:41.772Z,14.31
2022-11-01T17:27:11.045Z,14.29
2022-11-01T17:29:40.696Z,14.33
2022-11-01T17:32:11.131Z,14.29
2022-11-01T17:34:39.971Z,14.28
2022-11-01T17:37:08.273Z,14.31
2022-11-01T17:39:38.099Z,14.29
2022-11-01T17:42:06.759Z,14.31
2022-11-01T17:44:35.464Z,14.32
2022-11-01T17:47:07.235Z,14.24
2022-11-01T17:49:35.663Z,14.32
2022-11-01T17:52:04.735Z,14.36
2022-11-01T17:54:33.002Z,14.33
2022-11-01T17:57:02.344Z,14.28
2022-11-01T17:59:30.988Z,14.38
2022-11-01T18:01:59.884Z,14.33
2022-11-01T18:04:35.524Z,14.26
2022-11-01T18:07:05.116Z,14.35
2022-11-01T18:09:35.341Z,14.33
2022-11-01T18:12:10.518Z,14.31
2022-11-01T18:14:50.658Z,14.32
2022-11-01T18:17:33.410Z,14.29
2022-11-01T18:20:15.118Z,14.25
2022-11-01T18:22:50.694Z,14.21
2022-11-01T18:25:27.626Z,14.21
2022-11-01T18:28:00.570Z,14.24
2022-11-01T18:30:29.504Z,14.04
2022-11-01T18:33:04.167Z,14.09
2022-11-01T18:35:36.139Z,14.09
2022-11-01T18:38:14.681Z,14.04
2022-11-01T18:40:52.072Z,14.06
2022-11-01T18:43:22.324Z,14.03
2022-11-01T18:46:22.953Z,14.02
2022-11-01T18:48:39.039Z,14.02
2022-11-01T18:51:15.343Z,13.98
2022-11-01T18:53:43.879Z,13.98
2022-11-01T18:56:21.221Z,13.92
2022-11-01T18:58:50.236Z,13.94
2022-11-01T19:01:20.423Z,13.95
2022-11-01T19:03:56.246Z,14.00
2022-11-01T19:06:27.238Z,13.97
2022-11-01T19:08:57.373Z,13.97
2022-11-01T19:11:27.945Z,13.93
2022-11-01T19:14:01.032Z,13.83
2022-11-01T19:16:29.634Z,13.88
2022-11-01T19:18:57.966Z,13.83
2022-11-01T19:21:35.827Z,13.79
2022-11-01T19:24:11.064Z,13.83
2022-11-01T19:26:43.199Z,13.70
2022-11-01T19:29:14.277Z,13.75
2022-11-01T19:31:46.122Z,13.75
2022-11-01T19:34:20.761Z,13.66
2022-11-01T19:36:52.692Z,13.72
2022-11-01T19:39:24.371Z,13.78
2022-11-01T19:41:54.262Z,13.83
2022-11-01T19:44:24.892Z,13.81
2022-11-01T19:47:16.238Z,13.76
2022-11-01T19:49:44.309Z,13.86
2022-11-01T19:52:25.367Z,13.80
2022-11-01T19:54:55.276Z,13.83
2022-11-01T19:57:31.299Z,13.87
2022-11-01T20:00:16.860Z,13.89
2022-11-01T20:02:45.281Z,13.87
2022-11-01T20:05:27.431Z,13.94
2022-11-01T20:08:10.143Z,13.92
2022-11-01T20:10:41.277Z,13.95
2022-11-01T20:13:09.439Z,13.99
2022-11-01T20:15:37.587Z,14.01
2022-11-01T20:18:05.967Z,13.98
2022-11-01T20:20:34.437Z,13.98
2022-11-01T20:23:25.091Z,13.96
2022-11-01T20:25:52.568Z,13.98
2022-11-01T20:28:20.776Z,14.00
2022-11-01T20:30:48.893Z,13.94
2022-11-01T20:33:17.083Z,13.98
2022-11-01T20:35:45.299Z,13.99
2022-11-01T20:38:14.855Z,14.00
2022-11-01T20:40:43.055Z,13.99
2022-11-01T20:43:11.064Z,14.03
2022-11-01T20:45:39.143Z,14.01
2022-11-01T20:48:08.503Z,14.00
2022-11-01T20:50:37.089Z,14.03
2022-11-01T20:53:06.498Z,14.03
2022-11-01T20:55:36.436Z,14.01
2022-11-01T20:58:04.891Z,14.03
2022-11-01T21:00:33.413Z,13.98
2022-11-01T21:03:03.158Z,13.99
2022-11-01T21:05:34.777Z,14.06
2022-11-01T21:08:13.468Z,14.02
2022-11-01T21:10:44.197Z,14.02
2022-11-01T21:13:25.092Z,14.01
2022-11-01T21:15:54.822Z,14.03
2022-11-01T21:18:43.656Z,14.05
2022-11-01T21:21:33.693Z,14.04
2022-11-01T21:24:21.885Z,14.05
2022-11-01T21:26:55.833Z,14.09
2022-11-01T21:29:28.024Z,14.07
2022-11-01T21:31:57.164Z,14.07
2022-11-01T21:34:29.003Z,14.03
2022-11-01T21:36:58.943Z,13.99
2022-11-01T21:39:28.694Z,13.98
2022-11-01T21:42:01.744Z,13.99
2022-11-01T21:44:32.041Z,13.98
2022-11-01T21:47:12.747Z,14.01
2022-11-01T21:49:40.983Z,14.08
2022-11-01T21:54:40.724Z,14.08
2022-11-01T21:57:11.838Z,14.07
2022-11-01T21:59:40.261Z,14.06
2022-11-01T22:02:11.223Z,14.13
2022-11-01T22:04:40.109Z,14.05
2022-11-01T22:07:09.991Z,14.05
2022-11-01T22:09:39.048Z,14.09
2022-11-01T22:12:09.203Z,14.11
2022-11-01T22:14:37.669Z,14.14
2022-11-01T22:17:05.726Z,14.18
2022-11-01T22:19:33.776Z,14.22
2022-11-01T22:22:02.049Z,14.24
2022-11-01T22:24:30.280Z,14.23
2022-11-01T22:26:58.313Z,14.22
2022-11-01T22:29:27.772Z,14.15
2022-11-01T22:31:55.866Z,14.19
2022-11-01T22:34:24.025Z,14.20
2022-11-01T22:36:52.015Z,14.23
2022-11-01T22:39:22.190Z,14.19
2022-11-01T22:41:50.445Z,14.27
2022-11-01T22:44:24.327Z,14.23
2022-11-01T22:46:59.063Z,14.20
2022-11-01T22:49:30.149Z,14.16
2022-11-01T22:52:03.122Z,14.16
2022-11-01T22:54:36.003Z,14.18
2022-11-01T22:57:13.439Z,14.15
2022-11-01T22:59:45.621Z,14.15
2022-11-01T23:02:28.200Z,14.17
2022-11-01T23:05:17.117Z,14.16
2022-11-01T23:07:47.503Z,14.18
2022-11-01T23:10:28.301Z,14.15
2022-11-01T23:13:18.097Z,14.11
2022-11-01T23:15:46.636Z,14.19
2022-11-01T23:18:20.397Z,14.14
2022-11-01T23:20:55.562Z,14.14
2022-11-01T23:23:24.390Z,14.17
2022-11-01T23:25:53.336Z,14.14
2022-11-01T23:28:22.012Z,14.19
2022-11-01T23:30:51.816Z,14.14
2022-11-01T23:33:23.233Z,14.16
2022-11-01T23:35:54.001Z,14.12
2022-11-01T23:38:24.456Z,14.08
2022-11-01T23:40:55.168Z,14.09
2022-11-01T23:43:25.362Z,14.14
2022-11-01T23:45:53.976Z,14.13
2022-11-01T23:48:24.149Z,14.13
2022-11-01T23:50:54.076Z,14.14
2022-11-01T23:53:28.716Z,14.16
2022-11-01T23:55:57.144Z,14.13
